createdAt,value
2022-11-16T00:01:11.911Z,12.00
2022-11-16T00:03:38.671Z,12.00
2022-11-16T00:06:08.601Z,12.00
2022-11-16T00:08:37.526Z,12.00
2022-11-16T00:11:24.396Z,12.00
2022-11-16T00:13:51.183Z,12.00
2022-11-16T00:16:20.995Z,12.00
2022-11-16T00:18:47.690Z,12.00
2022-11-16T00:21:14.456Z,12.00
2022-11-16T00:23:48.662Z,12.00
2022-11-16T00:26:15.313Z,12.00
2022-11-16T00:28:41.989Z,12.00
2022-11-16T00:31:09.108Z,12.00
2022-11-16T00:33:35.893Z,12.00
2022-11-16T00:36:04.017Z,12.00
2022-11-16T00:38:30.965Z,12.00
2022-11-16T00:40:57.856Z,12.00
2022-11-16T00:43:24.729Z,12.00
2022-11-16T00:45:51.468Z,12.00
2022-11-16T00:48:18.194Z,12.00
2022-11-16T00:50:45.074Z,12.00
2022-11-16T00:53:15.829Z,12.00
2022-11-16T00:55:43.619Z,12.00
2022-11-16T00:58:10.648Z,12.00
2022-11-16T01:00:37.409Z,12.00
2022-11-16T01:03:04.193Z,12.00
2022-11-16T01:05:30.928Z,12.00
2022-11-16T01:07:57.651Z,12.00
2022-11-16T01:10:24.989Z,12.00
2022-11-16T01:12:51.944Z,12.00
2022-11-16T01:15:19.587Z,12.00
2022-11-16T01:17:46.315Z,11.90
2022-11-16T01:20:15.058Z,11.90
2022-11-16T01:22:41.896Z,11.90
2022-11-16T01:25:09.424Z,11.90
2022-11-16T01:27:37.851Z,11.90
2022-11-16T01:30:05.954Z,11.90
2022-11-16T01:32:33.029Z,11.90
2022-11-16T01:34:59.706Z,11.80
2022-11-16T01:37:26.744Z,11.80
2022-11-16T01:39:53.382Z,11.80
2022-11-16T01:42:21.513Z,11.80
2022-11-16T01:44:48.146Z,11.80
2022-11-16T01:47:15.815Z,11.80
2022-11-16T01:49:50.205Z,11.70
2022-11-16T01:52:22.751Z,11.70
2022-11-16T01:54:51.168Z,11.70
2022-11-16T01:57:22.537Z,11.70
2022-11-16T01:59:50.184Z,11.60
2022-11-16T02:02:16.785Z,11.60
2022-11-16T02:04:43.627Z,11.60
2022-11-16T02:07:23.624Z,11.60
2022-11-16T02:10:17.648Z,11.60
2022-11-16T02:12:44.273Z,11.60
2022-11-16T02:15:22.951Z,11.50
2022-11-16T02:18:01.902Z,11.50
2022-11-16T02:20:46.725Z,11.50
2022-11-16T02:23:19.456Z,11.50
2022-11-16T02:25:51.994Z,11.50
2022-11-16T02:28:40.850Z,11.40
2022-11-16T02:31:07.733Z,11.40
2022-11-16T02:33:36.148Z,11.40
2022-11-16T02:36:03.628Z,11.40
2022-11-16T02:38:32.414Z,11.30
2022-11-16T02:41:03.199Z,11.30
2022-11-16T02:43:32.269Z,11.30
2022-11-16T02:46:01.824Z,11.30
2022-11-16T02:48:38.039Z,11.30
2022-11-16T02:51:05.217Z,11.30
2022-11-16T02:53:39.210Z,11.30
2022-11-16T02:56:06.055Z,11.30
2022-11-16T02:58:33.173Z,11.30
2022-11-16T03:01:08.521Z,11.20
2022-11-16T03:03:45.796Z,11.30
2022-11-16T03:06:20.911Z,11.20
2022-11-16T03:09:12.049Z,11.20
2022-11-16T03:11:41.812Z,11.20
2022-11-16T03:14:12.103Z,11.20
2022-11-16T03:16:43.436Z,11.20
2022-11-16T03:19:12.060Z,11.20
2022-11-16T03:21:46.337Z,11.20
2022-11-16T03:24:12.959Z,11.10
2022-11-16T03:27:21.232Z,11.10
2022-11-16T03:30:01.678Z,11.10
2022-11-16T03:32:40.071Z,11.00
2022-11-16T03:35:28.702Z,11.00
2022-11-16T03:37:56.940Z,11.00
2022-11-16T03:40:23.993Z,11.00
2022-11-16T03:42:50.614Z,11.00
2022-11-16T03:45:17.404Z,10.90
2022-11-16T03:47:44.350Z,10.90
2022-11-16T03:50:11.136Z,10.90
2022-11-16T03:52:37.834Z,10.80
2022-11-16T03:55:04.874Z,10.80
2022-11-16T03:57:31.526Z,10.70
2022-11-16T03:59:58.093Z,10.70
2022-11-16T04:02:24.748Z,10.70
2022-11-16T04:04:51.399Z,10.60
2022-11-16T04:07:18.046Z,10.60
2022-11-16T04:09:44.692Z,10.50
2022-11-16T04:12:11.325Z,10.50
2022-11-16T04:14:37.929Z,10.40
2022-11-16T04:17:06.195Z,10.40
2022-11-16T04:19:32.878Z,10.40
2022-11-16T04:22:02.454Z,10.40
2022-11-16T04:24:30.494Z,10.40
2022-11-16T04:27:08.085Z,10.40
2022-11-16T04:29:34.815Z,10.30
2022-11-16T04:32:01.817Z,10.30
2022-11-16T04:34:28.508Z,10.20
2022-11-16T04:36:55.094Z,10.10
2022-11-16T04:39:21.933Z,10.10
2022-11-16T04:41:48.634Z,10.00
2022-11-16T04:44:15.318Z,10.00
2022-11-16T04:46:41.917Z,10.00
2022-11-16T04:49:08.586Z,9.90
2022-11-16T04:51:35.231Z,9.90
2022-11-16T04:54:01.842Z,9.80
2022-11-16T04:56:28.475Z,9.80
2022-11-16T04:58:55.324Z,9.70
2022-11-16T05:01:22.021Z,9.70
2022-11-16T05:03:48.646Z,9.70
2022-11-16T05:06:15.309Z,9.60
2022-11-16T05:08:41.942Z,9.60
2022-11-16T05:11:08.514Z,9.50
2022-11-16T05:13:35.144Z,9.50
2022-11-16T05:16:01.768Z,9.50
2022-11-16T05:18:28.516Z,9.40
2022-11-16T05:20:55.135Z,9.40
2022-11-16T05:23:21.779Z,9.30
2022-11-16T05:25:48.420Z,9.30
2022-11-16T05:28:15.075Z,9.20
2022-11-16T05:30:44.880Z,9.20
2022-11-16T05:33:11.424Z,9.20
2022-11-16T05:35:38.029Z,9.10
2022-11-16T05:38:04.629Z,9.10
2022-11-16T05:40:31.248Z,9.00
2022-11-16T05:42:58.012Z,9.00
2022-11-16T05:45:24.665Z,8.90
2022-11-16T05:47:51.344Z,8.90
2022-11-16T05:50:17.990Z,8.90
2022-11-16T05:52:44.647Z,8.80
2022-11-16T05:55:11.260Z,8.80
2022-11-16T05:57:37.959Z,8.80
2022-11-16T06:00:05.077Z,8.80
2022-11-16T06:02:33.156Z,8.70
2022-11-16T06:04:59.760Z,8.70
2022-11-16T06:07:29.421Z,8.70
2022-11-16T06:09:56.057Z,8.70
2022-11-16T06:12:22.704Z,8.70
2022-11-16T06:14:49.390Z,8.70
2022-11-16T06:17:16.026Z,8.70
2022-11-16T06:19:42.701Z,8.70
2022-11-16T06:22:09.385Z,8.70
2022-11-16T06:24:36.125Z,8.60
2022-11-16T06:27:02.788Z,8.60
2022-11-16T06:29:29.399Z,8.60
2022-11-16T06:31:56.042Z,8.60
2022-11-16T06:34:22.785Z,8.60
2022-11-16T06:36:49.401Z,8.50
2022-11-16T06:39:16.873Z,8.50
2022-11-16T06:41:43.492Z,8.50
2022-11-16T06:44:10.226Z,8.50
2022-11-16T06:46:36.858Z,8.50
2022-11-16T06:49:03.493Z,8.50
2022-11-16T06:51:30.131Z,8.40
2022-11-16T06:53:56.750Z,8.40
2022-11-16T06:56:23.567Z,8.40
2022-11-16T06:58:53.305Z,8.40
2022-11-16T07:01:20.337Z,8.40
2022-11-16T07:03:46.991Z,8.40
2022-11-16T07:06:13.770Z,8.40
2022-11-16T07:08:40.601Z,8.30
2022-11-16T07:11:08.116Z,8.30
2022-11-16T07:13:38.546Z,8.30
2022-11-16T07:16:09.280Z,8.30
2022-11-16T07:18:37.669Z,8.30
2022-11-16T07:21:14.760Z,8.30
2022-11-16T07:23:43.810Z,8.30
2022-11-16T07:26:10.665Z,8.30
2022-11-16T07:28:39.147Z,8.30
2022-11-16T07:31:10.485Z,8.30
2022-11-16T07:33:37.253Z,8.30
2022-11-16T07:36:05.262Z,8.30
2022-11-16T07:38:32.302Z,8.30
2022-11-16T07:41:03.003Z,8.30
2022-11-16T07:43:30.234Z,8.30
2022-11-16T07:46:03.918Z,8.40
2022-11-16T07:48:43.769Z,8.40
2022-11-16T07:51:12.256Z,8.40
2022-11-16T07:53:38.886Z,8.40
2022-11-16T07:56:05.928Z,8.50
2022-11-16T07:58:33.000Z,8.50
2022-11-16T08:01:07.230Z,8.50
2022-11-16T08:03:34.946Z,8.50
2022-11-16T08:06:08.420Z,8.50
2022-11-16T08:08:35.401Z,8.50
2022-11-16T08:11:03.775Z,8.60
2022-11-16T08:13:30.700Z,8.60
2022-11-16T08:16:02.965Z,8.70
2022-11-16T08:18:30.105Z,8.70
2022-11-16T08:20:59.304Z,8.70
2022-11-16T08:23:25.945Z,8.70
2022-11-16T08:25:52.563Z,8.80
2022-11-16T08:28:19.212Z,8.80
2022-11-16T08:30:49.651Z,8.80
2022-11-16T08:33:20.267Z,8.90
2022-11-16T08:35:47.645Z,8.90
2022-11-16T08:38:14.587Z,8.90
2022-11-16T08:40:41.323Z,8.90
2022-11-16T08:43:07.980Z,9.00
2022-11-16T08:45:34.578Z,9.00
2022-11-16T08:48:04.081Z,9.10
2022-11-16T08:50:33.451Z,9.10
2022-11-16T08:53:06.431Z,9.10
2022-11-16T08:55:33.692Z,9.20
2022-11-16T08:58:00.317Z,9.20
2022-11-16T09:00:26.932Z,9.20
2022-11-16T09:02:53.704Z,9.30
2022-11-16T09:05:20.323Z,9.30
2022-11-16T09:07:47.038Z,9.40
2022-11-16T09:10:13.679Z,9.40
2022-11-16T09:12:40.305Z,9.40
2022-11-16T09:15:07.453Z,9.50
2022-11-16T09:17:34.275Z,9.50
2022-11-16T09:20:01.004Z,9.60
2022-11-16T09:22:27.760Z,9.60
2022-11-16T09:24:54.430Z,9.70
2022-11-16T09:27:21.061Z,9.80
2022-11-16T09:29:47.670Z,10.30
2022-11-16T09:32:14.421Z,11.10
2022-11-16T09:34:41.109Z,12.10
2022-11-16T09:37:07.759Z,13.10
2022-11-16T09:39:34.406Z,14.00
2022-11-16T09:42:32.846Z,14.90
2022-11-16T09:45:22.711Z,15.60
2022-11-16T09:47:51.016Z,15.90
2022-11-16T09:50:40.827Z,16.20
2022-11-16T09:53:33.518Z,16.50
2022-11-16T09:56:03.670Z,16.90
2022-11-16T09:58:31.899Z,17.50
2022-11-16T10:01:19.994Z,18.00
2022-11-16T10:03:46.895Z,18.30
2022-11-16T10:06:22.347Z,18.50
2022-11-16T10:08:50.348Z,18.80
2022-11-16T10:11:30.001Z,18.90
2022-11-16T10:14:24.889Z,19.00
2022-11-16T10:17:13.034Z,18.90
2022-11-16T10:20:07.037Z,18.40
2022-11-16T10:23:01.757Z,17.80
2022-11-16T10:25:38.024Z,17.20
2022-11-16T10:28:15.889Z,16.60
2022-11-16T10:31:11.409Z,16.10
2022-11-16T10:33:38.178Z,15.50
2022-11-16T10:36:08.540Z,15.00
2022-11-16T10:38:35.178Z,14.50
2022-11-16T10:41:23.550Z,14.10
2022-11-16T10:43:50.244Z,13.90
2022-11-16T10:46:33.501Z,13.70
2022-11-16T10:49:03.182Z,13.50
2022-11-16T10:51:32.298Z,13.40
2022-11-16T10:53:59.040Z,13.30
2022-11-16T10:56:34.916Z,13.10
2022-11-16T10:59:03.529Z,13.10
2022-11-16T11:01:40.069Z,13.30
2022-11-16T11:04:13.107Z,13.90
2022-11-16T11:06:39.751Z,14.60
2022-11-16T11:09:28.447Z,15.00
2022-11-16T11:12:02.353Z,15.10
2022-11-16T11:14:29.002Z,15.00
2022-11-16T11:16:55.697Z,15.20
2022-11-16T11:19:27.054Z,15.30
2022-11-16T11:22:00.086Z,15.20
2022-11-16T11:24:43.840Z,15.00
2022-11-16T11:27:11.536Z,14.80
2022-11-16T11:29:39.606Z,14.60
2022-11-16T11:32:20.840Z,14.40
2022-11-16T11:34:52.692Z,14.30
2022-11-16T11:38:06.306Z,14.20
2022-11-16T11:40:41.672Z,14.20
2022-11-16T11:43:10.515Z,14.10
2022-11-16T11:45:50.043Z,14.30
2022-11-16T11:48:43.935Z,15.00
2022-11-16T11:51:21.797Z,15.70
2022-11-16T11:53:58.625Z,16.10
2022-11-16T11:56:26.133Z,17.00
2022-11-16T11:58:56.200Z,17.60
2022-11-16T12:01:50.409Z,18.20
2022-11-16T12:04:32.099Z,18.50
2022-11-16T12:07:41.585Z,18.80
2022-11-16T12:10:49.302Z,19.20
2022-11-16T12:13:40.892Z,19.10
2022-11-16T12:16:07.718Z,18.80
2022-11-16T12:18:53.010Z,18.40
2022-11-16T12:21:38.454Z,17.90
2022-11-16T12:24:31.215Z,17.40
2022-11-16T12:27:05.594Z,17.30
2022-11-16T12:29:37.881Z,17.20
2022-11-16T12:32:15.690Z,17.60
2022-11-16T12:35:04.438Z,17.90
2022-11-16T12:37:34.165Z,17.80
2022-11-16T12:40:27.264Z,17.50
2022-11-16T12:43:03.219Z,17.10
2022-11-16T12:45:37.596Z,16.60
2022-11-16T12:48:41.193Z,16.10
2022-11-16T12:51:15.102Z,15.60
2022-11-16T12:53:53.559Z,15.20
2022-11-16T12:56:50.820Z,15.00
2022-11-16T12:59:40.603Z,14.80
2022-11-16T13:02:34.443Z,14.60
2022-11-16T13:05:13.171Z,14.40
2022-11-16T13:07:45.753Z,14.30
2022-11-16T13:10:15.463Z,14.20
2022-11-16T13:12:42.436Z,14.10
2022-11-16T13:15:14.753Z,14.20
2022-11-16T13:17:41.417Z,14.20
2022-11-16T13:20:35.252Z,14.20
2022-11-16T13:23:07.553Z,14.10
2022-11-16T13:25:40.500Z,14.10
2022-11-16T13:28:17.616Z,14.10
2022-11-16T13:30:57.550Z,14.10
2022-11-16T13:33:50.976Z,14.10
2022-11-16T13:36:36.103Z,14.20
2022-11-16T13:39:04.158Z,14.20
2022-11-16T13:41:44.604Z,14.20
2022-11-16T13:44:18.776Z,14.10
2022-11-16T13:46:57.572Z,14.10
2022-11-16T13:49:32.703Z,14.10
2022-11-16T13:52:22.200Z,14.00
2022-11-16T13:54:52.250Z,14.00
2022-11-16T13:57:25.279Z,13.90
2022-11-16T13:59:57.082Z,13.90
2022-11-16T14:02:40.179Z,13.90
2022-11-16T14:05:18.211Z,13.90
2022-11-16T14:07:47.849Z,14.00
2022-11-16T14:10:34.675Z,14.00
2022-11-16T14:13:04.346Z,14.00
2022-11-16T14:15:32.640Z,14.00
2022-11-16T14:18:08.513Z,14.00
2022-11-16T14:20:37.955Z,14.00
2022-11-16T14:23:04.660Z,13.90
2022-11-16T14:25:46.079Z,13.80
2022-11-16T14:28:31.675Z,13.60
2022-11-16T14:31:20.946Z,13.50
2022-11-16T14:33:55.362Z,13.40
2022-11-16T14:36:38.863Z,13.30
2022-11-16T14:39:25.157Z,13.20
2022-11-16T14:41:52.432Z,13.10
2022-11-16T14:44:19.886Z,13.10
2022-11-16T14:46:46.684Z,13.00
2022-11-16T14:49:14.723Z,13.00
2022-11-16T14:51:46.232Z,13.00
2022-11-16T14:54:23.827Z,12.90
2022-11-16T14:56:57.459Z,12.80
2022-11-16T14:59:24.247Z,12.80
2022-11-16T15:01:50.922Z,12.70
2022-11-16T15:04:17.609Z,12.70
2022-11-16T15:06:50.508Z,12.70
2022-11-16T15:09:27.264Z,12.60
2022-11-16T15:11:54.117Z,12.60
2022-11-16T15:14:25.762Z,12.50
2022-11-16T15:16:53.785Z,12.50
2022-11-16T15:19:22.732Z,12.50
2022-11-16T15:22:00.058Z,12.50
2022-11-16T15:24:34.997Z,12.50
2022-11-16T15:27:12.458Z,12.50
2022-11-16T15:29:39.179Z,12.50
2022-11-16T15:32:06.472Z,12.40
2022-11-16T15:34:33.119Z,12.30
2022-11-16T15:36:59.722Z,12.20
2022-11-16T15:39:28.496Z,12.10
2022-11-16T15:42:00.434Z,12.10
2022-11-16T15:44:30.391Z,12.00
2022-11-16T15:46:57.009Z,11.90
2022-11-16T15:49:29.542Z,11.80
2022-11-16T15:52:03.100Z,11.80
2022-11-16T15:54:31.374Z,11.70
2022-11-16T15:57:06.610Z,11.60
2022-11-16T15:59:36.431Z,11.60
2022-11-16T16:02:03.968Z,11.50
2022-11-16T16:04:31.019Z,11.40
2022-11-16T16:06:59.178Z,11.40
2022-11-16T16:09:37.192Z,11.40
2022-11-16T16:12:17.977Z,11.40
2022-11-16T16:14:45.888Z,11.40
2022-11-16T16:17:22.400Z,11.30
2022-11-16T16:19:59.803Z,11.30
2022-11-16T16:22:33.901Z,11.30
2022-11-16T16:25:02.430Z,11.20
2022-11-16T16:27:30.521Z,11.20
2022-11-16T16:29:58.310Z,11.10
2022-11-16T16:32:32.652Z,11.10
2022-11-16T16:35:07.771Z,11.10
2022-11-16T16:37:42.186Z,11.10
2022-11-16T16:40:09.575Z,11.00
2022-11-16T16:42:55.123Z,11.00
2022-11-16T16:45:29.414Z,11.00
2022-11-16T16:47:56.169Z,10.90
2022-11-16T16:50:22.804Z,10.90
2022-11-16T16:52:49.485Z,10.90
2022-11-16T16:55:19.270Z,10.80
2022-11-16T16:57:45.936Z,10.80
2022-11-16T17:00:13.148Z,10.80
2022-11-16T17:02:39.830Z,10.80
2022-11-16T17:05:06.999Z,10.80
2022-11-16T17:07:33.784Z,10.70
2022-11-16T17:10:00.481Z,10.70
2022-11-16T17:12:27.258Z,10.70
2022-11-16T17:14:53.892Z,10.70
2022-11-16T17:17:21.033Z,10.70
2022-11-16T17:19:47.656Z,10.70
2022-11-16T17:22:14.334Z,10.70
2022-11-16T17:24:41.004Z,10.70
2022-11-16T17:27:07.613Z,10.70
2022-11-16T17:29:34.244Z,10.70
2022-11-16T17:32:00.916Z,10.70
2022-11-16T17:34:27.582Z,10.70
2022-11-16T17:36:54.199Z,10.70
2022-11-16T17:39:20.894Z,10.70
2022-11-16T17:41:47.542Z,10.70
2022-11-16T17:44:20.158Z,10.70
2022-11-16T17:46:48.190Z,10.70
2022-11-16T17:49:14.859Z,10.70
2022-11-16T17:51:41.536Z,10.80
2022-11-16T17:54:08.166Z,10.80
2022-11-16T17:56:36.941Z,10.80
2022-11-16T17:59:03.718Z,10.90
2022-11-16T18:01:30.403Z,10.90
2022-11-16T18:03:57.202Z,10.90
2022-11-16T18:06:24.645Z,10.90
2022-11-16T18:08:51.734Z,10.90
2022-11-16T18:11:22.744Z,10.90
2022-11-16T18:13:54.953Z,10.90
2022-11-16T18:23:38.586Z,10.90
2022-11-16T18:26:42.345Z,10.90
2022-11-16T18:43:55.423Z,10.80
2022-11-16T19:28:56.797Z,10.60
2022-11-16T19:31:25.368Z,10.50
2022-11-16T19:33:55.439Z,10.60
2022-11-16T19:36:22.314Z,10.50
2022-11-16T19:38:49.228Z,10.60
2022-11-16T19:41:16.940Z,10.60
2022-11-16T19:43:43.699Z,10.60
2022-11-16T19:52:21.125Z,10.60
2022-11-16T19:54:47.902Z,10.60
2022-11-16T19:57:14.698Z,10.60
2022-11-16T19:59:41.371Z,10.60
2022-11-16T20:02:09.401Z,10.60
2022-11-16T20:04:36.210Z,10.60
2022-11-16T20:07:02.973Z,10.60
2022-11-16T20:09:32.234Z,10.60
2022-11-16T20:12:09.475Z,10.70
2022-11-16T20:14:36.488Z,10.70
2022-11-16T20:17:05.864Z,10.70
2022-11-16T20:19:32.585Z,10.70
2022-11-16T20:21:59.594Z,10.70
2022-11-16T20:24:26.334Z,10.70
2022-11-16T20:26:56.165Z,10.70
2022-11-16T20:29:22.996Z,10.70
2022-11-16T20:31:49.633Z,10.70
2022-11-16T20:34:16.595Z,10.70
2022-11-16T20:36:46.787Z,10.80
2022-11-16T20:39:14.698Z,10.70
2022-11-16T20:41:41.477Z,10.70
2022-11-16T20:44:15.979Z,10.70
2022-11-16T20:46:43.227Z,10.60
2022-11-16T20:49:10.286Z,10.60
2022-11-16T20:51:37.182Z,10.60
2022-11-16T20:54:04.139Z,10.50
2022-11-16T20:56:30.846Z,10.50
2022-11-16T20:58:57.548Z,10.40
2022-11-16T21:01:26.166Z,10.40
2022-11-16T21:03:53.377Z,10.40
2022-11-16T21:06:20.807Z,10.40
2022-11-16T21:08:48.103Z,10.40
2022-11-16T21:11:19.512Z,10.30
2022-11-16T21:13:46.637Z,10.30
2022-11-16T21:16:13.817Z,10.30
2022-11-16T21:18:40.485Z,10.30
2022-11-16T21:21:11.537Z,10.30
2022-11-16T21:23:39.199Z,10.30
2022-11-16T21:26:07.370Z,10.30
2022-11-16T21:28:34.125Z,10.30
2022-11-16T21:31:02.089Z,10.30
2022-11-16T21:33:28.986Z,10.20
2022-11-16T21:35:55.685Z,10.20
2022-11-16T21:38:23.508Z,10.20
2022-11-16T21:40:50.251Z,10.20
2022-11-16T21:43:17.089Z,10.20
2022-11-16T21:45:47.536Z,10.20
2022-11-16T21:48:14.317Z,10.20
2022-11-16T21:50:41.669Z,10.20
2022-11-16T21:53:08.791Z,10.20
2022-11-16T21:55:35.520Z,10.20
2022-11-16T21:58:02.296Z,10.20
2022-11-16T22:00:29.018Z,10.20
2022-11-16T22:02:55.648Z,10.20
2022-11-16T22:05:22.393Z,10.20
2022-11-16T22:07:49.167Z,10.20
2022-11-16T22:10:15.933Z,10.20
2022-11-16T22:12:42.534Z,10.20
2022-11-16T22:15:09.623Z,10.20
2022-11-16T22:17:36.290Z,10.20
2022-11-16T22:20:03.014Z,10.20
2022-11-16T22:22:29.655Z,10.20
2022-11-16T22:24:56.341Z,10.20
2022-11-16T22:27:24.317Z,10.20
2022-11-16T22:29:50.960Z,10.20
2022-11-16T22:32:17.587Z,10.20
2022-11-16T22:34:44.301Z,10.20
2022-11-16T22:37:10.921Z,10.20
2022-11-16T22:39:37.576Z,10.20
2022-11-16T22:42:04.514Z,10.20
2022-11-16T22:44:31.099Z,10.20
2022-11-16T22:46:57.826Z,10.20
2022-11-16T22:49:24.574Z,10.20
2022-11-16T22:51:51.214Z,10.20
2022-11-16T22:54:18.000Z,10.20
2022-11-16T22:56:44.683Z,10.20
2022-11-16T22:59:11.336Z,10.20
2022-11-16T23:01:37.983Z,10.20
2022-11-16T23:04:04.716Z,10.20
2022-11-16T23:06:31.342Z,10.20
2022-11-16T23:08:58.055Z,10.20
2022-11-16T23:11:27.941Z,10.20
2022-11-16T23:13:54.656Z,10.20
2022-11-16T23:16:21.258Z,10.20
2022-11-16T23:18:47.871Z,10.20
2022-11-16T23:21:14.518Z,10.20
2022-11-16T23:23:41.105Z,10.20
2022-11-16T23:26:12.870Z,10.30
2022-11-16T23:28:39.544Z,10.30
2022-11-16T23:31:06.300Z,10.30
2022-11-16T23:33:33.213Z,10.30
2022-11-16T23:36:00.896Z,10.30
2022-11-16T23:38:27.500Z,10.30
2022-11-16T23:40:54.139Z,10.30
2022-11-16T23:43:20.836Z,10.30
2022-11-16T23:45:47.451Z,10.30
2022-11-16T23:48:15.219Z,10.30
2022-11-16T23:50:42.004Z,10.30
2022-11-16T23:53:08.940Z,10.30
2022-11-16T23:55:36.276Z,10.30
2022-11-16T23:58:02.934Z,10.30
